Eloy, Arizona
Current Conditions -  °F | °C
As of 10:15 AM on Tuesday 21 Oct 2014 (Local Time) from KCGZ Reporting Station
Clear Clear  
Wind Chill: 79°   Ceiling: Unl
Heat Index: 79°   Visibility: 10mi
Dew Point: 52°   Wind: 0mph
Humidity: 39%   Direction: NA
Pressure: 29.92"   Gusts: NA
Location:  32.75°N, 111.55°W
Report Text: KCGZ 211715Z AUTO 00000KT 10SM CLR 26/11 A2992 RMK AO1
Loading
Personal Weather Stations






























Interactive Weather Map
Tropical Storm Tracking
New forecast layout! Learn more

10-Day Weather Forecast

Advertisements
Track Severe Weather on mobile